ADDS TAF Data INFO
IDs: Format: Raw Decoded Include METARs

Data at: 1054 UTC 20 Jan 2018

KDCA 200952Z 20003KT 10SM CLR M01/M07 A3001 RMK AO2 SLP160 T10061067

KDCA 200834Z 2009/2112 23004KT P6SM FEW150 FEW250
  FM210100 29005KT P6SM FEW200 FEW250